Time;durP1;ratioP1;P1;durP2;ratioP2;P2;SDS_P1;SDS_P2;PMS_P1;PMS_P2;Temp;Humidity;BMP_temperature;BMP_pressure;BME280_temperature;BME280_humidity;BME280_pressure;Samples;Min_cycle;Max_cycle;Signal;HPM_P1;HPM_P2
2021/03/26 00:01:07;;;;;;;3.00;1.88;;;10.30;99.90;;;;;;4897887;29;20232;-75
2021/03/26 00:03:38;;;;;;;2.25;1.75;;;10.20;99.90;;;;;;4897624;29;20168;-76
2021/03/26 00:06:08;;;;;;;1.52;1.42;;;10.10;99.90;;;;;;4897592;29;20192;-76
2021/03/26 00:08:34;;;;;;;2.65;2.45;;;10.00;99.90;;;;;;4897599;29;20247;-76
2021/03/26 00:11:01;;;;;;;2.60;2.50;;;10.10;99.90;;;;;;4897771;29;20248;-75
2021/03/26 00:13:27;;;;;;;3.97;2.47;;;10.30;99.90;;;;;;4897469;29;20235;-75
2021/03/26 00:15:52;;;;;;;4.10;2.45;;;10.30;99.90;;;;;;4897602;29;20256;-75
2021/03/26 00:18:18;;;;;;;3.33;2.85;;;10.30;99.90;;;;;;4897529;29;20237;-75
2021/03/26 00:20:43;;;;;;;1.35;1.27;;;10.30;99.90;;;;;;4896333;29;20240;-75
2021/03/26 00:23:09;;;;;;;1.80;1.67;;;10.10;99.90;;;;;;4897641;29;20172;-75
2021/03/26 00:25:36;;;;;;;1.58;1.50;;;10.10;99.90;;;;;;4897646;29;20173;-75
2021/03/26 00:28:03;;;;;;;3.25;2.63;;;10.20;99.90;;;;;;4899338;29;20184;-76
2021/03/26 00:30:30;;;;;;;3.10;2.47;;;10.10;99.90;;;;;;4901011;29;20177;-76
2021/03/26 00:32:55;;;;;;;2.15;2.05;;;10.00;99.90;;;;;;4899551;29;20197;-75
2021/03/26 00:35:23;;;;;;;1.65;1.55;;;10.00;99.90;;;;;;4899694;29;20651;-76
2021/03/26 00:37:49;;;;;;;2.95;1.85;;;10.10;99.90;;;;;;4900844;29;20184;-77
2021/03/26 00:40:17;;;;;;;2.33;2.13;;;10.00;99.90;;;;;;4900811;29;20621;-75
2021/03/26 00:42:44;;;;;;;2.67;2.58;;;10.10;99.90;;;;;;4900733;29;20207;-75
2021/03/26 00:45:13;;;;;;;4.55;2.63;;;10.10;99.90;;;;;;4900905;29;20302;-75
2021/03/26 00:47:38;;;;;;;3.30;2.00;;;10.10;99.90;;;;;;4900824;29;20207;-75
2021/03/26 00:50:19;;;;;;;2.67;2.38;;;10.20;99.90;;;;;;4900580;29;20181;-75
2021/03/26 00:52:45;;;;;;;2.75;2.55;;;10.30;99.90;;;;;;4900523;29;20207;-76
2021/03/26 00:55:11;;;;;;;6.03;3.15;;;10.40;99.90;;;;;;4900590;29;20204;-75
2021/03/26 00:57:37;;;;;;;8.20;1.77;;;10.30;99.90;;;;;;4899569;29;20228;-75
2021/03/26 01:00:08;;;;;;;2.97;2.67;;;10.10;99.90;;;;;;4900671;29;20645;-75
2021/03/26 01:02:34;;;;;;;7.18;2.70;;;10.10;99.90;;;;;;4900303;29;20199;-75
2021/03/26 01:04:59;;;;;;;4.00;2.10;;;10.00;99.90;;;;;;4900530;29;20168;-76
2021/03/26 01:07:25;;;;;;;7.85;2.10;;;10.10;99.90;;;;;;4900265;29;20201;-75
2021/03/26 01:09:51;;;;;;;1.48;1.42;;;10.10;99.90;;;;;;4900335;29;20172;-75
2021/03/26 01:12:17;;;;;;;2.95;1.10;;;10.20;99.90;;;;;;4900252;29;20169;-75
2021/03/26 01:14:42;;;;;;;1.98;1.85;;;10.30;99.90;;;;;;4900229;29;20315;-76
2021/03/26 01:17:08;;;;;;;1.90;1.80;;;10.30;99.90;;;;;;4900180;29;20645;-75
2021/03/26 01:19:38;;;;;;;4.90;3.90;;;10.30;99.90;;;;;;4899973;29;20699;-76
2021/03/26 01:22:05;;;;;;;7.18;3.95;;;10.00;99.90;;;;;;4900095;29;20247;-76
2021/03/26 01:24:31;;;;;;;2.03;1.92;;;10.10;99.90;;;;;;4900057;29;20240;-76
2021/03/26 01:26:58;;;;;;;2.10;1.90;;;10.20;99.90;;;;;;4899892;29;20291;-76
2021/03/26 01:29:24;;;;;;;1.05;1.05;;;10.00;99.90;;;;;;4899944;29;20176;-75
2021/03/26 01:31:50;;;;;;;1.63;1.52;;;10.20;99.90;;;;;;4898513;29;20187;-75
2021/03/26 01:34:15;;;;;;;3.50;2.92;;;10.20;99.90;;;;;;4899806;29;20272;-75
2021/03/26 01:36:41;;;;;;;2.10;1.98;;;10.20;99.90;;;;;;4899798;29;20192;-76
2021/03/26 01:39:07;;;;;;;8.57;3.45;;;10.30;99.90;;;;;;4897546;29;20176;-75
2021/03/26 01:41:42;;;;;;;3.08;2.20;;;10.30;99.90;;;;;;4899830;29;20239;-76
2021/03/26 01:44:08;;;;;;;2.80;1.92;;;10.20;99.90;;;;;;4899866;29;20168;-75
2021/03/26 01:46:35;;;;;;;2.35;2.17;;;10.20;99.90;;;;;;4899394;29;20275;-75
2021/03/26 01:49:04;;;;;;;2.47;2.28;;;10.30;99.90;;;;;;4899781;29;20177;-75
2021/03/26 01:51:32;;;;;;;3.55;2.90;;;10.10;99.90;;;;;;4899461;29;20175;-76
2021/03/26 01:53:59;;;;;;;3.08;2.10;;;10.10;99.90;;;;;;4898589;29;20551;-75
2021/03/26 01:56:25;;;;;;;0.93;0.90;;;10.10;99.90;;;;;;4899307;29;20187;-76
2021/03/26 01:58:51;;;;;;;3.53;1.75;;;10.20;99.90;;;;;;4899489;29;20176;-75
2021/03/26 02:01:42;;;;;;;1.77;1.67;;;10.30;99.90;;;;;;4899480;29;20161;-75
2021/03/26 02:04:09;;;;;;;2.90;1.75;;;10.30;99.90;;;;;;4898796;29;20185;-76
2021/03/26 02:06:43;;;;;;;1.60;0.65;;;10.10;99.90;;;;;;4899109;29;20213;-76
2021/03/26 02:09:15;;;;;;;3.00;2.45;;;9.90;99.90;;;;;;4899487;29;20168;-75
2021/03/26 02:11:52;;;;;;;2.17;2.03;;;9.80;99.90;;;;;;4899172;29;20708;-75
2021/03/26 02:14:21;;;;;;;1.15;1.08;;;9.70;99.90;;;;;;4899087;29;20652;-75
2021/03/26 02:16:48;;;;;;;1.05;1.05;;;9.70;99.90;;;;;;4898891;29;20684;-75
2021/03/26 02:19:23;;;;;;;1.55;1.38;;;9.70;99.90;;;;;;4898833;29;20303;-75
2021/03/26 02:21:50;;;;;;;12.05;2.22;;;9.70;99.90;;;;;;4899298;29;20535;-75
2021/03/26 02:24:17;;;;;;;11.02;2.75;;;9.80;99.90;;;;;;4898889;29;20295;-76
2021/03/26 02:26:47;;;;;;;4.38;1.98;;;9.70;99.90;;;;;;4898911;29;20216;-76
2021/03/26 02:29:27;;;;;;;3.72;3.15;;;9.60;99.90;;;;;;4917570;29;20164;-76
2021/03/26 02:31:59;;;;;;;2.10;1.70;;;9.80;99.90;;;;;;4917929;29;20198;-75
2021/03/26 02:34:26;;;;;;;1.27;1.17;;;9.80;99.90;;;;;;4917636;29;20611;-75
2021/03/26 02:37:06;;;;;;;1.13;1.00;;;9.80;99.90;;;;;;4917569;29;20267;-75
2021/03/26 02:39:39;;;;;;;0.90;0.88;;;9.70;99.90;;;;;;4917744;29;20179;-76
2021/03/26 02:42:15;;;;;;;3.17;1.63;;;9.70;99.90;;;;;;4917414;29;20171;-75
2021/03/26 02:44:51;;;;;;;1.92;1.83;;;9.60;99.90;;;;;;4917877;29;20187;-76
2021/03/26 02:47:25;;;;;;;2.78;2.58;;;9.40;99.90;;;;;;4900266;29;20210;-75
2021/03/26 02:50:08;;;;;;;1.42;0.98;;;9.40;99.90;;;;;;4900278;29;20175;-75
2021/03/26 02:52:46;;;;;;;3.00;2.80;;;9.40;99.90;;;;;;4917369;29;20180;-75
2021/03/26 02:55:24;;;;;;;1.60;1.52;;;9.50;99.90;;;;;;4917342;29;20176;-75
2021/03/26 02:58:18;;;;;;;1.67;1.55;;;9.40;99.90;;;;;;4917345;29;20235;-76
2021/03/26 03:00:52;;;;;;;2.90;2.08;;;9.50;99.90;;;;;;4900288;29;20235;-75
2021/03/26 03:03:22;;;;;;;2.03;1.15;;;9.50;99.90;;;;;;4917209;29;20643;-75
2021/03/26 03:06:13;;;;;;;1.48;1.38;;;9.50;99.90;;;;;;4917169;29;20247;-75
2021/03/26 03:08:40;;;;;;;1.70;1.60;;;9.30;99.90;;;;;;4917085;29;20156;-75
2021/03/26 03:11:28;;;;;;;1.60;1.50;;;9.50;99.90;;;;;;4917380;29;20161;-76
2021/03/26 03:14:10;;;;;;;1.27;1.27;;;9.40;99.90;;;;;;4917088;29;20217;-76
2021/03/26 03:16:49;;;;;;;3.58;1.35;;;9.20;99.90;;;;;;4916928;29;20192;-75
2021/03/26 03:19:23;;;;;;;2.85;2.45;;;9.20;99.90;;;;;;4916840;29;20250;-76
2021/03/26 03:22:12;;;;;;;6.93;2.53;;;9.20;99.90;;;;;;4916925;29;20513;-75
2021/03/26 03:24:41;;;;;;;5.93;2.20;;;9.20;99.90;;;;;;4916967;29;20164;-76
2021/03/26 03:27:28;;;;;;;1.02;1.02;;;9.30;99.90;;;;;;4899880;29;20204;-75
2021/03/26 03:29:57;;;;;;;2.35;2.15;;;9.20;99.90;;;;;;4916905;29;20199;-76
2021/03/26 03:32:40;;;;;;;2.97;2.53;;;9.10;99.90;;;;;;4916932;29;20168;-75
2021/03/26 03:35:24;;;;;;;1.42;1.33;;;9.10;99.90;;;;;;4916881;29;20187;-76
2021/03/26 03:38:09;;;;;;;1.92;1.83;;;9.10;99.90;;;;;;4916834;29;20191;-75
2021/03/26 03:40:56;;;;;;;4.65;1.23;;;9.20;99.90;;;;;;4916856;29;20643;-75
2021/03/26 03:43:31;;;;;;;0.63;0.63;;;9.20;99.90;;;;;;4899643;29;20172;-75
2021/03/26 03:46:25;;;;;;;2.55;2.35;;;9.10;99.90;;;;;;4916727;29;20199;-75
2021/03/26 03:49:01;;;;;;;0.50;0.50;;;9.10;99.90;;;;;;4917043;29;20191;-75
2021/03/26 03:51:36;;;;;;;2.65;2.47;;;9.20;99.90;;;;;;4916635;29;20167;-75
2021/03/26 03:54:17;;;;;;;5.93;1.92;;;9.20;99.90;;;;;;4916541;29;20687;-75
2021/03/26 03:57:02;;;;;;;0.73;0.73;;;9.20;99.90;;;;;;4916594;29;20191;-74
2021/03/26 04:00:13;;;;;;;1.42;1.33;;;9.30;99.90;;;;;;4916604;29;20176;-75
2021/03/26 04:03:01;;;;;;;3.08;2.33;;;9.30;99.90;;;;;;4917850;29;20263;-76
2021/03/26 04:05:36;;;;;;;2.13;1.95;;;9.30;99.90;;;;;;4920308;29;20162;-75
2021/03/26 04:08:24;;;;;;;13.35;1.42;;;9.30;99.90;;;;;;4920296;29;20702;-75
2021/03/26 04:10:54;;;;;;;1.52;1.48;;;9.20;99.90;;;;;;4920257;29;20184;-75
2021/03/26 04:13:24;;;;;;;2.15;1.98;;;9.10;99.90;;;;;;4920118;29;20278;-75
2021/03/26 04:15:57;;;;;;;1.98;1.88;;;9.20;99.90;;;;;;4920206;29;20186;-75
2021/03/26 04:18:41;;;;;;;2.22;1.55;;;9.20;99.90;;;;;;4919997;29;20216;-75
2021/03/26 04:21:18;;;;;;;7.18;1.85;;;9.10;99.90;;;;;;4920078;29;20580;-75
2021/03/26 04:23:53;;;;;;;2.10;2.00;;;8.90;99.90;;;;;;4919995;29;20152;-76
2021/03/26 04:27:01;;;;;;;2.17;1.80;;;8.80;99.90;;;;;;4902901;29;20172;-75
2021/03/26 04:29:33;;;;;;;8.45;2.50;;;8.90;99.90;;;;;;4919898;29;20179;-75
2021/03/26 04:32:10;;;;;;;3.42;3.08;;;8.90;99.90;;;;;;4919637;29;20160;-75
2021/03/26 04:34:39;;;;;;;6.00;2.65;;;9.00;99.90;;;;;;4919757;29;20210;-76
2021/03/26 04:37:30;;;;;;;5.57;3.00;;;8.90;99.90;;;;;;4919728;29;20275;-76
2021/03/26 04:40:21;;;;;;;3.38;2.47;;;8.90;99.90;;;;;;4884112;29;20628;-75
2021/03/26 04:43:04;;;;;;;2.30;2.20;;;9.00;99.90;;;;;;4919568;29;20172;-75
2021/03/26 04:45:57;;;;;;;4.90;2.15;;;9.00;99.90;;;;;;4919653;29;20164;-75
2021/03/26 04:48:36;;;;;;;2.38;2.25;;;9.00;99.90;;;;;;4918401;29;20290;-75
2021/03/26 04:51:25;;;;;;;1.20;1.10;;;8.90;99.90;;;;;;4901821;29;20176;-75
2021/03/26 04:54:09;;;;;;;1.80;1.70;;;8.80;99.90;;;;;;4902363;29;20293;-75
2021/03/26 04:56:41;;;;;;;6.13;1.83;;;8.90;99.90;;;;;;4919185;29;20187;-75
2021/03/26 04:59:10;;;;;;;2.47;2.28;;;9.00;99.90;;;;;;4919309;29;20164;-75
2021/03/26 05:01:37;;;;;;;0.88;0.88;;;9.00;99.90;;;;;;4919235;29;20156;-75
2021/03/26 05:04:25;;;;;;;3.03;2.78;;;8.90;99.90;;;;;;4919201;29;20172;-75
2021/03/26 05:07:18;;;;;;;5.68;2.83;;;8.90;99.90;;;;;;4919158;29;20648;-75
2021/03/26 05:09:47;;;;;;;2.95;2.47;;;8.90;99.90;;;;;;4918527;29;20203;-75
2021/03/26 05:12:20;;;;;;;1.88;1.73;;;8.90;99.90;;;;;;4902142;29;20669;-75
2021/03/26 05:14:53;;;;;;;2.00;1.90;;;9.00;99.90;;;;;;4918749;29;20210;-75
2021/03/26 05:17:21;;;;;;;7.03;2.00;;;9.00;99.90;;;;;;4901713;29;20203;-75
2021/03/26 05:19:55;;;;;;;1.73;1.63;;;9.00;99.90;;;;;;4918757;29;20578;-75
2021/03/26 05:22:43;;;;;;;2.97;1.50;;;9.00;99.90;;;;;;4918958;29;20635;-75
2021/03/26 05:25:43;;;;;;;4.60;2.88;;;8.90;99.90;;;;;;4919003;29;20252;-75
2021/03/26 05:28:20;;;;;;;2.05;1.95;;;8.90;99.90;;;;;;4918620;29;20563;-76
2021/03/26 05:30:47;;;;;;;2.13;1.88;;;8.90;99.90;;;;;;4918743;29;20172;-75
2021/03/26 05:33:15;;;;;;;1.50;1.50;;;8.80;99.90;;;;;;4918661;29;20223;-75
2021/03/26 05:35:44;;;;;;;3.17;2.50;;;8.90;99.90;;;;;;4918488;29;20203;-75
2021/03/26 05:38:16;;;;;;;1.83;1.73;;;9.00;99.90;;;;;;4918500;29;20195;-75
2021/03/26 05:41:15;;;;;;;14.70;1.52;;;8.90;99.90;;;;;;4918332;29;20172;-75
2021/03/26 05:44:05;;;;;;;8.52;1.67;;;9.10;99.90;;;;;;4912265;29;20243;-75
2021/03/26 05:47:08;;;;;;;2.28;2.10;;;9.10;99.90;;;;;;4918282;29;20255;-75
2021/03/26 05:49:55;;;;;;;20.02;2.00;;;9.00;99.90;;;;;;4899353;29;20180;-75
2021/03/26 05:52:36;;;;;;;7.22;2.33;;;9.00;99.90;;;;;;4882586;29;20165;-75
2021/03/26 05:55:19;;;;;;;3.20;2.58;;;8.90;99.90;;;;;;4899436;29;20208;-75
2021/03/26 05:58:03;;;;;;;3.92;2.70;;;8.70;99.90;;;;;;4899247;29;20203;-74
2021/03/26 06:01:01;;;;;;;1.30;1.30;;;8.70;99.90;;;;;;4897717;29;20176;-75
2021/03/26 06:03:55;;;;;;;8.35;3.13;;;8.80;99.90;;;;;;4898945;29;20183;-75
2021/03/26 06:06:54;;;;;;;2.70;2.25;;;8.80;99.90;;;;;;4911101;29;20530;-75
2021/03/26 06:09:19;;;;;;;3.35;3.13;;;9.00;99.90;;;;;;4917900;29;20612;-75
2021/03/26 06:11:54;;;;;;;1.55;1.45;;;9.00;99.90;;;;;;4917892;29;20212;-75
2021/03/26 06:14:34;;;;;;;3.40;3.20;;;9.10;99.90;;;;;;4900691;29;20662;-75
2021/03/26 06:17:42;;;;;;;1.17;1.10;;;9.00;99.90;;;;;;4917571;29;20282;-75
2021/03/26 06:20:46;;;;;;;2.22;1.67;;;9.10;99.90;;;;;;4900635;29;20224;-75
2021/03/26 06:23:39;;;;;;;3.78;3.40;;;9.20;99.90;;;;;;4917661;29;20171;-75
2021/03/26 06:26:28;;;;;;;3.13;2.70;;;9.20;99.90;;;;;;4917187;29;20211;-75
2021/03/26 06:29:16;;;;;;;9.95;2.33;;;9.30;99.90;;;;;;4917281;29;20229;-75
2021/03/26 06:32:07;;;;;;;1.83;1.50;;;9.50;99.90;;;;;;4917650;29;20172;-75
2021/03/26 06:35:09;;;;;;;7.50;2.08;;;9.50;99.90;;;;;;4900272;29;20223;-75
2021/03/26 06:38:04;;;;;;;0.45;0.45;;;9.60;99.90;;;;;;4900134;29;20232;-74
2021/03/26 06:40:50;;;;;;;2.40;2.20;;;9.80;99.90;;;;;;4899812;29;20227;-74
2021/03/26 06:44:03;;;;;;;8.90;2.42;;;10.00;99.90;;;;;;4899823;29;20666;-74
2021/03/26 06:46:45;;;;;;;1.55;1.42;;;9.90;99.90;;;;;;4872137;29;20587;-74
2021/03/26 06:49:36;;;;;;;5.00;2.00;;;9.90;99.90;;;;;;4917039;29;20231;-73
2021/03/26 06:52:27;;;;;;;14.88;3.08;;;9.80;99.90;;;;;;4917021;29;20160;-74
2021/03/26 06:55:41;;;;;;;1.95;1.75;;;10.00;99.90;;;;;;4916768;29;20237;-74
2021/03/26 06:58:34;;;;;;;1.13;1.10;;;10.00;99.90;;;;;;4848515;29;20218;-76
2021/03/26 07:01:34;;;;;;;2.13;2.03;;;9.90;99.90;;;;;;4916688;29;20168;-75
2021/03/26 07:04:15;;;;;;;2.53;2.33;;;10.20;99.90;;;;;;4916434;29;20176;-75
2021/03/26 07:07:16;;;;;;;9.45;1.73;;;10.20;99.90;;;;;;4914505;29;20200;-76
2021/03/26 07:09:57;;;;;;;1.70;1.60;;;10.20;99.90;;;;;;4877044;29;20192;-75
2021/03/26 07:12:28;;;;;;;2.10;1.80;;;10.40;99.90;;;;;;4915809;29;20250;-76
2021/03/26 07:15:07;;;;;;;2.05;1.58;;;10.50;99.90;;;;;;4898792;29;20219;-75
2021/03/26 07:17:39;;;;;;;8.90;3.00;;;10.80;99.90;;;;;;4916687;29;20210;-76
2021/03/26 07:20:24;;;;;;;1.05;1.05;;;10.70;99.90;;;;;;4897155;29;20228;-75
2021/03/26 07:23:20;;;;;;;1.63;1.52;;;10.90;99.90;;;;;;4896626;29;20179;-75
2021/03/26 07:26:23;;;;;;;14.80;3.00;;;11.10;99.90;;;;;;4916281;29;20176;-73
2021/03/26 07:28:57;;;;;;;7.90;1.17;;;11.20;99.90;;;;;;4895679;29;20176;-75
2021/03/26 07:31:58;;;;;;;1.88;1.77;;;11.10;99.90;;;;;;4896227;29;20183;-75
2021/03/26 07:34:43;;;;;;;1.45;1.27;;;11.20;99.90;;;;;;4897273;29;20192;-75
2021/03/26 07:37:27;;;;;;;5.80;2.28;;;11.00;99.90;;;;;;4907806;29;20207;-74
2021/03/26 07:40:30;;;;;;;0.93;0.93;;;11.10;99.90;;;;;;4903418;29;20178;-75
2021/03/26 07:43:05;;;;;;;3.38;1.80;;;11.30;99.90;;;;;;4920038;29;20294;-75
2021/03/26 07:46:08;;;;;;;1.63;1.52;;;11.20;99.90;;;;;;4903397;29;20189;-75
2021/03/26 07:48:45;;;;;;;2.22;1.45;;;11.30;99.90;;;;;;4920597;29;20535;-75
2021/03/26 07:51:38;;;;;;;3.47;2.30;;;11.30;99.90;;;;;;4920211;29;20160;-75
2021/03/26 07:54:03;;;;;;;1.38;1.23;;;11.40;99.90;;;;;;4920211;29;20259;-74
2021/03/26 07:57:06;;;;;;;2.05;1.95;;;11.50;99.90;;;;;;4919985;29;20192;-75
2021/03/26 07:59:56;;;;;;;1.23;1.20;;;11.80;99.90;;;;;;4920275;29;20171;-75
2021/03/26 08:02:49;;;;;;;1.55;1.45;;;11.90;99.90;;;;;;4919006;29;20246;-75
2021/03/26 08:05:26;;;;;;;1.55;1.45;;;12.00;99.90;;;;;;4900865;29;20187;-75
2021/03/26 08:07:57;;;;;;;1.08;1.08;;;12.20;99.90;;;;;;4919454;29;20191;-76
2021/03/26 08:10:28;;;;;;;1.65;1.40;;;12.40;99.90;;;;;;4919419;29;20175;-76
2021/03/26 08:13:20;;;;;;;0.85;0.85;;;12.30;99.90;;;;;;4917032;29;20196;-76
2021/03/26 08:16:07;;;;;;;1.65;1.38;;;12.20;99.90;;;;;;4918313;29;20627;-77
2021/03/26 08:18:45;;;;;;;3.88;2.45;;;12.10;99.90;;;;;;4919169;29;20270;-78
2021/03/26 08:21:49;;;;;;;5.47;1.30;;;12.50;99.90;;;;;;4902691;29;20182;-80
2021/03/26 08:24:36;;;;;;;1.67;1.08;;;12.60;99.90;;;;;;4842514;29;20755;-79
2021/03/26 08:27:14;;;;;;;10.80;1.05;;;12.50;99.90;;;;;;4919477;29;20215;-79
2021/03/26 08:29:52;;;;;;;6.22;1.15;;;12.50;99.90;;;;;;4919114;29;20167;-77
2021/03/26 08:32:41;;;;;;;1.10;1.10;;;12.60;99.90;;;;;;4919477;29;20640;-79
2021/03/26 08:35:55;;;;;;;1.60;1.50;;;12.90;99.90;;;;;;4919194;29;20254;-77
2021/03/26 08:38:47;;;;;;;0.80;0.80;;;13.00;99.90;;;;;;4877719;29;20702;-79
2021/03/26 08:41:23;;;;;;;1.27;1.00;;;13.20;99.90;;;;;;4919340;29;20244;-77
2021/03/26 08:43:51;;;;;;;1.92;1.15;;;13.10;99.90;;;;;;4919662;29;20175;-78
2021/03/26 08:46:31;;;;;;;1.27;1.15;;;12.90;99.90;;;;;;4919377;29;20183;-78
2021/03/26 08:49:03;;;;;;;7.47;1.48;;;12.90;99.90;;;;;;4918929;29;20263;-79
2021/03/26 08:51:53;;;;;;;1.30;0.57;;;12.70;99.90;;;;;;4919209;29;20175;-76
2021/03/26 08:54:21;;;;;;;0.35;0.35;;;12.80;99.90;;;;;;4919133;29;20214;-79
2021/03/26 08:57:26;;;;;;;2.47;1.70;;;13.00;99.90;;;;;;4919162;29;20534;-77
2021/03/26 09:00:32;;;;;;;1.45;1.35;;;13.00;99.90;;;;;;4918900;29;20183;-77
2021/03/26 09:03:30;;;;;;;1.00;0.93;;;13.20;99.90;;;;;;4918706;29;20677;-75
2021/03/26 09:06:27;;;;;;;1.08;1.02;;;13.30;99.90;;;;;;4918982;29;20207;-76
2021/03/26 09:09:11;;;;;;;0.88;0.55;;;13.40;99.90;;;;;;4917068;29;20184;-76
2021/03/26 09:11:54;;;;;;;0.43;0.43;;;13.30;99.90;;;;;;4918748;29;20160;-76
2021/03/26 09:14:42;;;;;;;0.57;0.57;;;13.40;99.90;;;;;;4919008;29;20204;-75
2021/03/26 09:17:31;;;;;;;0.70;0.57;;;13.50;99.90;;;;;;4901576;29;20299;-76
2021/03/26 09:20:22;;;;;;;0.50;0.50;;;13.60;99.90;;;;;;4917986;29;20592;-77
2021/03/26 09:23:07;;;;;;;8.30;1.90;;;13.40;99.90;;;;;;4918613;29;20294;-76
2021/03/26 09:25:51;;;;;;;1.13;0.45;;;13.50;99.90;;;;;;4918734;29;20176;-76
2021/03/26 09:28:22;;;;;;;3.63;1.10;;;13.60;99.90;;;;;;4901506;29;20207;-76
2021/03/26 09:31:09;;;;;;;1.63;1.15;;;13.60;99.90;;;;;;4901769;29;20168;-76
2021/03/26 09:33:38;;;;;;;4.03;1.50;;;13.60;99.90;;;;;;4918242;29;20203;-74
2021/03/26 09:36:07;;;;;;;0.40;0.40;;;13.60;99.90;;;;;;4918131;29;20183;-75
2021/03/26 09:39:04;;;;;;;4.95;0.68;;;13.50;99.90;;;;;;4918027;29;20187;-77
2021/03/26 09:41:50;;;;;;;0.60;0.60;;;13.40;99.90;;;;;;4909612;29;20270;-76
2021/03/26 09:44:50;;;;;;;1.13;0.98;;;13.80;99.90;;;;;;4918198;29;20179;-81
2021/03/26 09:47:24;;;;;;;0.80;0.80;;;13.80;99.90;;;;;;4900716;29;20282;-76
2021/03/26 09:50:17;;;;;;;2.47;1.08;;;13.90;99.90;;;;;;4918083;29;20168;-76
2021/03/26 09:52:44;;;;;;;0.85;0.85;;;13.90;99.90;;;;;;4903868;29;20176;-75
2021/03/26 09:55:18;;;;;;;2.00;1.38;;;13.60;99.90;;;;;;4917931;29;20196;-76
2021/03/26 09:57:56;;;;;;;4.90;1.00;;;13.50;99.90;;;;;;4917872;29;20199;-76
2021/03/26 10:00:50;;;;;;;1.08;1.08;;;13.60;99.90;;;;;;4916607;29;20176;-76
2021/03/26 10:03:33;;;;;;;1.35;1.08;;;13.30;99.90;;;;;;4917443;29;20605;-76
2021/03/26 10:06:19;;;;;;;0.88;0.88;;;13.00;99.90;;;;;;4917620;29;20172;-76
2021/03/26 10:09:08;;;;;;;1.00;0.90;;;13.10;99.90;;;;;;4917528;29;20183;-77
2021/03/26 10:11:54;;;;;;;0.60;0.60;;;13.10;99.90;;;;;;4917501;29;20149;-76
2021/03/26 10:14:28;;;;;;;7.07;1.45;;;13.10;99.90;;;;;;4917228;29;20200;-77
2021/03/26 10:17:27;;;;;;;1.45;1.35;;;13.20;99.90;;;;;;4917160;29;20556;-76
2021/03/26 10:20:03;;;;;;;1.10;1.10;;;13.10;99.90;;;;;;4917218;29;20220;-76
2021/03/26 10:22:50;;;;;;;1.15;1.15;;;13.00;99.90;;;;;;4917391;29;20178;-76
2021/03/26 10:25:37;;;;;;;0.60;0.60;;;13.10;99.90;;;;;;4917762;29;20220;-77
2021/03/26 10:28:15;;;;;;;0.30;0.30;;;13.10;99.90;;;;;;4917710;29;20309;-76
2021/03/26 10:30:47;;;;;;;2.78;1.55;;;13.10;99.90;;;;;;4917625;29;20172;-84
2021/03/26 10:33:15;;;;;;;0.90;0.90;;;13.20;99.90;;;;;;4917228;29;20172;-75
2021/03/26 10:36:01;;;;;;;0.73;0.73;;;13.40;99.90;;;;;;4917248;29;20206;-76
2021/03/26 10:38:48;;;;;;;5.28;0.70;;;13.50;99.90;;;;;;4917159;29;20202;-75
2021/03/26 10:41:50;;;;;;;0.47;0.40;;;13.60;99.90;;;;;;4916748;29;20533;-75
2021/03/26 10:44:43;;;;;;;1.17;1.17;;;13.60;99.90;;;;;;4881864;29;20238;-75
2021/03/26 10:47:28;;;;;;;0.25;0.25;;;13.70;99.90;;;;;;4917098;29;20195;-75
2021/03/26 10:50:00;;;;;;;0.55;0.55;;;14.20;99.90;;;;;;4917142;29;20183;-75
2021/03/26 10:52:36;;;;;;;4.85;1.88;;;14.30;99.90;;;;;;4908809;29;20600;-76
2021/03/26 10:55:12;;;;;;;0.52;0.35;;;14.70;99.90;;;;;;4915302;29;20993;-75
2021/03/26 10:57:46;;;;;;;0.40;0.40;;;14.90;99.90;;;;;;4915586;29;20286;-75
2021/03/26 11:00:28;;;;;;;0.35;0.35;;;14.90;99.90;;;;;;4898156;29;20172;-76
2021/03/26 11:03:01;;;;;;;0.85;0.73;;;14.60;99.90;;;;;;4896032;29;20274;-75
2021/03/26 11:05:36;;;;;;;0.45;0.45;;;14.40;99.90;;;;;;4912703;29;20931;-75
2021/03/26 11:08:02;;;;;;;0.40;0.40;;;14.50;99.90;;;;;;4913978;29;20322;-75
2021/03/26 11:10:41;;;;;;;0.30;0.30;;;14.60;99.90;;;;;;4914825;29;20259;-76
2021/03/26 11:13:35;;;;;;;0.50;0.50;;;14.70;99.90;;;;;;4914781;29;20627;-76
2021/03/26 11:16:14;;;;;;;0.20;0.20;;;15.00;99.90;;;;;;4915619;29;20184;-76
2021/03/26 11:18:59;;;;;;;1.00;0.77;;;15.20;99.90;;;;;;4897581;29;20322;-77
2021/03/26 11:21:35;;;;;;;0.35;0.35;;;15.10;99.90;;;;;;4898497;29;20209;-76
2021/03/26 11:24:05;;;;;;;0.28;0.28;;;15.10;99.90;;;;;;4915212;29;20175;-75
2021/03/26 11:26:36;;;;;;;0.50;0.50;;;15.20;99.90;;;;;;4915238;29;20180;-75
2021/03/26 11:29:06;;;;;;;0.50;0.40;;;15.30;99.90;;;;;;4915117;29;20178;-74
2021/03/26 11:31:37;;;;;;;0.73;0.73;;;15.00;99.90;;;;;;4915723;29;20239;-75
2021/03/26 11:34:33;;;;;;;0.40;0.40;;;15.00;99.90;;;;;;4897601;29;20734;-74
2021/03/26 11:37:06;;;;;;;0.30;0.30;;;14.90;99.90;;;;;;4914733;29;20217;-75
2021/03/26 11:39:42;;;;;;;0.30;0.30;;;15.00;99.90;;;;;;4914941;29;20176;-74
2021/03/26 11:42:07;;;;;;;0.30;0.30;;;15.00;99.90;;;;;;4915371;29;20872;-75
2021/03/26 11:44:43;;;;;;;4.10;0.52;;;14.90;99.90;;;;;;4915555;29;20161;-74
2021/03/26 11:47:34;;;;;;;0.10;0.10;;;15.10;99.90;;;;;;4914775;29;20233;-73
2021/03/26 11:50:31;;;;;;;0.30;0.30;;;15.00;99.90;;;;;;4914408;29;20172;-74
2021/03/26 11:53:00;;;;;;;0.20;0.20;;;15.30;99.90;;;;;;4908213;29;20184;-73
2021/03/26 11:55:34;;;;;;;0.63;0.63;;;15.20;99.90;;;;;;4914496;29;20658;-74
2021/03/26 11:58:16;;;;;;;0.20;0.20;;;15.10;99.90;;;;;;4915121;29;20184;-74
2021/03/26 12:00:51;;;;;;;0.77;0.77;;;15.20;99.90;;;;;;4914508;29;20173;-74
2021/03/26 12:03:32;;;;;;;0.20;0.20;;;15.30;99.90;;;;;;4914454;29;20180;-74
2021/03/26 12:06:22;;;;;;;0.32;0.28;;;15.30;99.90;;;;;;4897826;29;20211;-73
2021/03/26 12:08:48;;;;;;;2.67;0.60;;;15.30;99.90;;;;;;4897854;29;20168;-75
2021/03/26 12:11:13;;;;;;;0.95;0.90;;;15.60;99.90;;;;;;4915348;29;20251;-74
2021/03/26 12:13:54;;;;;;;0.30;0.30;;;15.60;99.90;;;;;;4914893;29;20218;-74
2021/03/26 12:16:25;;;;;;;1.98;1.55;;;15.80;99.90;;;;;;4914296;29;20191;-74
2021/03/26 12:18:59;;;;;;;0.38;0.38;;;15.40;99.90;;;;;;4915126;29;20308;-75
2021/03/26 12:21:30;;;;;;;1.27;0.40;;;15.30;99.90;;;;;;4913753;29;20206;-74
2021/03/26 12:24:08;;;;;;;0.30;0.30;;;15.20;99.90;;;;;;4916949;29;20635;-79
2021/03/26 12:26:53;;;;;;;0.20;0.20;;;15.00;99.90;;;;;;4918206;29;20757;-77
2021/03/26 12:29:29;;;;;;;0.55;0.55;;;14.70;99.90;;;;;;4918886;29;20271;-74
2021/03/26 12:32:02;;;;;;;1.02;0.93;;;14.50;99.90;;;;;;4900641;29;20176;-76
2021/03/26 12:34:59;;;;;;;0.50;0.50;;;14.60;99.90;;;;;;4918283;29;20208;-74
2021/03/26 12:38:03;;;;;;;0.40;0.40;;;14.70;99.90;;;;;;4901181;29;20199;-74
2021/03/26 12:40:46;;;;;;;0.25;0.25;;;14.70;99.90;;;;;;4888620;29;20199;-74
2021/03/26 12:43:29;;;;;;;0.20;0.20;;;14.80;99.90;;;;;;4918127;29;20160;-73
2021/03/26 12:46:04;;;;;;;0.20;0.20;;;14.80;99.90;;;;;;4917975;29;20180;-74
2021/03/26 12:48:44;;;;;;;0.50;0.50;;;15.00;99.90;;;;;;4917811;29;20230;-75
2021/03/26 12:51:33;;;;;;;0.10;0.10;;;14.90;99.90;;;;;;4917693;29;20243;-74
2021/03/26 12:54:02;;;;;;;0.60;0.60;;;15.10;99.90;;;;;;4918493;29;20290;-74
2021/03/26 12:56:34;;;;;;;1.27;1.00;;;15.40;99.90;;;;;;4918421;29;20650;-75
2021/03/26 12:59:23;;;;;;;3.00;0.50;;;15.30;99.90;;;;;;4917593;29;20168;-74
2021/03/26 13:02:09;;;;;;;1.88;1.08;;;15.40;99.90;;;;;;4918076;29;20329;-75
2021/03/26 13:04:58;;;;;;;0.20;0.20;;;15.50;99.90;;;;;;4899630;29;20629;-76
2021/03/26 13:07:45;;;;;;;0.40;0.40;;;15.50;99.90;;;;;;4898669;29;20200;-74
2021/03/26 13:10:44;;;;;;;0.17;0.17;;;15.60;99.90;;;;;;4898797;29;20240;-74
2021/03/26 13:13:34;;;;;;;0.50;0.40;;;15.70;99.90;;;;;;4887574;29;20563;-75
2021/03/26 13:16:05;;;;;;;0.32;0.32;;;15.90;99.90;;;;;;4914800;29;20188;-74
2021/03/26 13:18:31;;;;;;;1.90;0.85;;;16.00;99.90;;;;;;4916779;29;20257;-75
2021/03/26 13:21:03;;;;;;;0.90;0.73;;;15.80;99.90;;;;;;4916732;29;20714;-74
2021/03/26 13:23:33;;;;;;;0.65;0.30;;;15.60;99.90;;;;;;4916990;29;20235;-75
2021/03/26 13:26:06;;;;;;;0.38;0.38;;;15.50;99.90;;;;;;4914347;29;20180;-75
2021/03/26 13:28:42;;;;;;;0.28;0.28;;;15.30;99.90;;;;;;4917405;29;20255;-74
2021/03/26 13:31:21;;;;;;;0.20;0.20;;;15.30;99.90;;;;;;4917882;29;20160;-74
2021/03/26 13:33:55;;;;;;;0.30;0.30;;;15.40;99.90;;;;;;4916581;29;20188;-74
2021/03/26 13:36:30;;;;;;;0.30;0.30;;;15.60;99.90;;;;;;4917555;29;20176;-74
2021/03/26 13:39:01;;;;;;;0.32;0.32;;;15.40;99.90;;;;;;4916797;29;20270;-74
2021/03/26 13:41:41;;;;;;;9.40;0.30;;;15.50;99.90;;;;;;4917370;29;20164;-75
2021/03/26 13:44:43;;;;;;;1.85;1.15;;;15.40;99.90;;;;;;4916571;29;20271;-74
2021/03/26 13:47:16;;;;;;;0.73;0.73;;;15.30;99.90;;;;;;4914976;29;20667;-75
2021/03/26 13:49:59;;;;;;;0.45;0.45;;;15.50;99.90;;;;;;4916800;29;20176;-74
2021/03/26 13:52:34;;;;;;;0.20;0.20;;;15.60;99.90;;;;;;4914611;29;20179;-73
2021/03/26 13:55:26;;;;;;;0.50;0.50;;;15.60;99.90;;;;;;4916546;29;20214;-74